createdAt,value
2017-12-29T00:00:16.808Z,76.64
2017-12-29T00:02:44.273Z,75.40
2017-12-29T00:05:11.749Z,75.77
2017-12-29T00:07:39.230Z,76.04
2017-12-29T00:10:06.687Z,76.32
2017-12-29T00:12:34.188Z,75.42
2017-12-29T00:15:01.696Z,75.27
2017-12-29T00:17:29.205Z,76.46
2017-12-29T00:19:56.721Z,75.49
2017-12-29T00:22:24.198Z,75.85
2017-12-29T00:24:51.738Z,75.64
2017-12-29T00:27:19.166Z,75.05
2017-12-29T00:29:46.650Z,74.51
2017-12-29T00:32:14.140Z,74.10
2017-12-29T00:34:41.655Z,74.51
2017-12-29T00:37:09.134Z,74.93
2017-12-29T00:39:36.612Z,75.00
2017-12-29T00:42:04.078Z,74.80
2017-12-29T00:44:31.512Z,75.64
2017-12-29T00:46:59.055Z,75.13
2017-12-29T00:49:26.518Z,75.02
2017-12-29T00:51:53.981Z,76.01
2017-12-29T00:54:21.415Z,75.43
2017-12-29T00:56:48.874Z,75.85
2017-12-29T00:59:16.323Z,75.51
2017-12-29T01:01:43.769Z,75.76
2017-12-29T01:04:11.211Z,75.57
2017-12-29T01:06:38.656Z,75.29
2017-12-29T01:09:06.148Z,75.38
2017-12-29T01:11:33.624Z,75.29
2017-12-29T01:14:01.081Z,75.54
2017-12-29T01:16:28.516Z,75.56
2017-12-29T01:18:55.963Z,74.90
2017-12-29T01:21:23.492Z,74.74
2017-12-29T01:23:50.960Z,75.01
2017-12-29T01:26:18.407Z,75.61
2017-12-29T01:28:45.859Z,75.23
2017-12-29T01:31:13.339Z,75.26
2017-12-29T01:33:40.817Z,75.07
2017-12-29T01:36:08.250Z,74.87
2017-12-29T01:38:35.996Z,74.23
2017-12-29T01:41:03.443Z,74.58
2017-12-29T01:43:30.891Z,73.81
2017-12-29T01:45:58.335Z,74.80
2017-12-29T01:48:25.880Z,74.78
2017-12-29T01:50:53.320Z,74.37
2017-12-29T01:53:20.759Z,74.80
2017-12-29T01:55:48.222Z,74.77
2017-12-29T01:58:15.662Z,75.50
2017-12-29T02:00:43.133Z,75.25
2017-12-29T02:03:10.577Z,75.33
2017-12-29T02:05:38.082Z,74.77
2017-12-29T02:08:05.527Z,74.87
2017-12-29T02:10:33.019Z,74.91
2017-12-29T02:13:00.467Z,75.07
2017-12-29T02:15:27.948Z,74.42
2017-12-29T02:17:55.391Z,74.02
2017-12-29T02:20:22.892Z,73.74
2017-12-29T02:22:50.352Z,73.56
2017-12-29T02:25:17.788Z,73.09
2017-12-29T02:27:45.236Z,73.58
2017-12-29T02:30:12.677Z,73.09
2017-12-29T02:32:40.150Z,72.73
2017-12-29T02:35:07.627Z,72.56
2017-12-29T02:37:35.077Z,73.53
2017-12-29T02:40:02.543Z,73.03
2017-12-29T02:42:29.992Z,73.29
2017-12-29T02:44:57.497Z,72.00
2017-12-29T02:47:24.954Z,73.49
2017-12-29T02:49:52.395Z,71.97
2017-12-29T02:52:19.870Z,72.93
2017-12-29T02:54:47.311Z,73.44
2017-12-29T02:57:14.849Z,73.06
2017-12-29T02:59:42.283Z,72.23
2017-12-29T03:02:09.798Z,73.06
2017-12-29T03:04:37.263Z,72.91
2017-12-29T03:07:04.718Z,72.98
2017-12-29T03:09:32.204Z,72.02
2017-12-29T03:11:59.779Z,73.10
2017-12-29T03:14:27.214Z,73.11
2017-12-29T03:16:54.652Z,72.89
2017-12-29T03:19:22.103Z,71.69
2017-12-29T03:21:49.540Z,71.85
2017-12-29T03:24:16.982Z,72.78
2017-12-29T03:26:44.417Z,72.69
2017-12-29T03:29:11.979Z,72.62
2017-12-29T03:31:39.427Z,72.31
2017-12-29T03:34:06.892Z,72.46
2017-12-29T03:36:34.391Z,72.12
2017-12-29T03:39:01.825Z,73.11
2017-12-29T03:41:29.295Z,73.04
2017-12-29T03:43:56.733Z,72.98
2017-12-29T03:46:24.196Z,72.30
2017-12-29T03:48:51.654Z,72.83
2017-12-29T03:51:19.103Z,72.81
2017-12-29T03:53:46.560Z,73.28
2017-12-29T03:56:14.098Z,72.48
2017-12-29T03:58:41.535Z,72.74
2017-12-29T04:01:09.035Z,72.81
2017-12-29T04:03:36.478Z,73.15
2017-12-29T04:06:04.035Z,73.94
2017-12-29T04:08:31.487Z,73.44
2017-12-29T04:10:58.966Z,72.37
2017-12-29T04:13:26.412Z,72.39
2017-12-29T04:15:53.849Z,73.34
2017-12-29T04:18:21.303Z,73.21
2017-12-29T04:20:48.848Z,72.64
2017-12-29T04:23:16.298Z,73.36
2017-12-29T04:25:43.751Z,73.33
2017-12-29T04:28:11.476Z,73.29
2017-12-29T04:30:38.943Z,73.29
2017-12-29T04:33:06.388Z,73.08
2017-12-29T04:35:33.832Z,73.95
2017-12-29T04:38:01.267Z,74.29
2017-12-29T04:40:28.718Z,73.53
2017-12-29T04:42:56.171Z,73.71
2017-12-29T04:45:23.619Z,74.52
2017-12-29T04:47:51.089Z,74.09
2017-12-29T04:50:18.808Z,74.45
2017-12-29T04:52:46.240Z,73.99
2017-12-29T04:55:13.749Z,74.39
2017-12-29T04:57:41.189Z,73.90
2017-12-29T05:00:08.638Z,73.50
2017-12-29T05:02:36.080Z,73.89
2017-12-29T05:05:03.533Z,74.37
2017-12-29T05:07:30.977Z,73.45
2017-12-29T05:09:58.444Z,74.55
2017-12-29T05:12:25.936Z,73.76
2017-12-29T05:14:53.369Z,74.49
2017-12-29T05:17:20.894Z,73.37
2017-12-29T05:19:48.333Z,73.90
2017-12-29T05:22:15.779Z,73.53
2017-12-29T05:24:43.305Z,74.01
2017-12-29T05:27:11.675Z,73.60
2017-12-29T05:29:39.177Z,73.75
2017-12-29T05:32:06.722Z,74.84
2017-12-29T05:34:34.182Z,73.74
2017-12-29T05:37:01.672Z,74.56
2017-12-29T05:39:29.250Z,74.65
2017-12-29T05:41:56.704Z,74.31
2017-12-29T05:44:24.171Z,74.06
2017-12-29T05:46:51.621Z,74.77
2017-12-29T05:49:19.057Z,75.15
2017-12-29T05:51:46.592Z,74.75
2017-12-29T05:54:14.029Z,73.95
2017-12-29T05:56:41.499Z,74.68
2017-12-29T05:59:08.929Z,73.63
2017-12-29T06:01:36.478Z,72.91
2017-12-29T06:04:03.960Z,74.28
2017-12-29T06:06:31.405Z,73.71
2017-12-29T06:08:58.891Z,73.58
2017-12-29T06:11:26.354Z,74.31
2017-12-29T06:13:53.803Z,74.77
2017-12-29T06:16:21.246Z,74.22
2017-12-29T06:18:48.788Z,73.18
2017-12-29T06:21:16.223Z,73.91
2017-12-29T06:23:43.668Z,73.37
2017-12-29T06:26:11.194Z,73.08
2017-12-29T06:28:38.632Z,73.27
2017-12-29T06:31:06.134Z,73.29
2017-12-29T06:33:33.595Z,73.66
2017-12-29T06:36:01.067Z,72.63
2017-12-29T06:38:28.531Z,73.21
2017-12-29T06:40:56.105Z,73.31
2017-12-29T06:43:23.544Z,72.80
2017-12-29T06:45:51.011Z,73.13
2017-12-29T09:21:30.748Z,68.73
2017-12-29T09:23:58.204Z,69.77
2017-12-29T09:26:25.648Z,69.86
2017-12-29T09:28:53.148Z,69.44
2017-12-29T09:31:20.664Z,69.16
2017-12-29T09:33:48.135Z,68.27
2017-12-29T09:36:15.583Z,68.59
2017-12-29T09:38:43.019Z,68.79
2017-12-29T09:41:10.472Z,68.55
2017-12-29T09:43:37.910Z,67.97
2017-12-29T09:46:05.368Z,68.38
2017-12-29T09:48:32.819Z,69.14
2017-12-29T09:51:00.458Z,69.09
2017-12-29T09:53:27.959Z,68.84
2017-12-29T09:55:55.412Z,68.84
2017-12-29T09:58:22.892Z,68.98
2017-12-29T10:00:50.344Z,68.16
2017-12-29T10:03:17.826Z,69.06
2017-12-29T10:05:45.283Z,69.26
2017-12-29T10:08:12.804Z,68.46
2017-12-29T10:10:40.255Z,68.58
2017-12-29T10:13:07.709Z,68.54
2017-12-29T10:15:35.163Z,68.43
2017-12-29T10:18:02.875Z,68.47
2017-12-29T10:20:30.331Z,68.09
2017-12-29T10:22:57.817Z,68.14
2017-12-29T10:25:25.264Z,68.03
2017-12-29T10:27:52.706Z,67.96
2017-12-29T10:30:20.157Z,67.28
2017-12-29T10:32:47.695Z,67.85
2017-12-29T10:35:15.142Z,68.14
2017-12-29T10:37:42.646Z,69.13
2017-12-29T10:40:10.236Z,67.73
2017-12-29T10:42:37.675Z,67.94
2017-12-29T10:45:05.212Z,68.53
2017-12-29T10:47:32.728Z,69.04
2017-12-29T10:50:00.167Z,68.90
2017-12-29T10:52:27.618Z,67.73
2017-12-29T10:54:55.141Z,67.68
2017-12-29T10:57:22.596Z,67.65
2017-12-29T10:59:50.052Z,67.51
2017-12-29T11:02:17.535Z,67.59
2017-12-29T11:04:45.563Z,67.77
2017-12-29T11:07:13.015Z,66.87
2017-12-29T11:09:40.456Z,67.53
2017-12-29T11:12:07.915Z,67.23
2017-12-29T11:14:35.364Z,66.75
2017-12-29T11:17:02.809Z,66.71
2017-12-29T11:19:30.249Z,66.94
2017-12-29T11:21:57.701Z,66.67
2017-12-29T11:24:25.184Z,67.00
2017-12-29T11:26:52.713Z,66.29
2017-12-29T11:29:20.306Z,65.58
2017-12-29T11:31:47.757Z,66.39
2017-12-29T11:34:15.260Z,66.21
2017-12-29T11:36:42.712Z,66.06
2017-12-29T11:39:10.196Z,66.36
2017-12-29T11:41:37.637Z,65.93
2017-12-29T11:44:05.378Z,64.36
2017-12-29T11:46:32.824Z,65.26
2017-12-29T11:49:00.311Z,64.84
2017-12-29T11:51:27.765Z,65.39
2017-12-29T11:53:55.226Z,65.37
2017-12-29T11:56:22.671Z,64.95
2017-12-29T11:58:50.172Z,63.17
2017-12-29T12:01:17.637Z,61.92
2017-12-29T12:03:45.077Z,61.05
2017-12-29T12:06:13.463Z,60.58
2017-12-29T12:08:40.912Z,58.26
2017-12-29T12:11:08.441Z,55.91
2017-12-29T12:13:35.908Z,55.38
2017-12-29T12:16:03.433Z,55.18
2017-12-29T12:18:31.007Z,55.30
2017-12-29T12:20:58.541Z,54.85
2017-12-29T12:23:26.002Z,54.38
2017-12-29T12:25:53.437Z,53.29
2017-12-29T12:28:21.204Z,55.44
2017-12-29T12:30:48.653Z,55.99
2017-12-29T12:33:16.202Z,55.65
2017-12-29T12:35:43.676Z,55.84
2017-12-29T12:38:11.134Z,55.80
2017-12-29T12:40:38.593Z,55.81
2017-12-29T12:43:06.050Z,54.84
2017-12-29T12:45:33.498Z,53.93
2017-12-29T12:48:00.944Z,55.20
2017-12-29T12:50:28.495Z,55.79
2017-12-29T12:52:56.217Z,56.27
2017-12-29T12:55:23.977Z,55.20
2017-12-29T12:57:51.432Z,54.61
2017-12-29T13:00:18.879Z,54.71
2017-12-29T13:02:46.308Z,53.85
2017-12-29T13:05:13.743Z,54.41
2017-12-29T13:07:41.198Z,53.36
2017-12-29T13:10:08.647Z,54.47
2017-12-29T13:12:36.141Z,54.25
2017-12-29T13:15:03.601Z,53.39
2017-12-29T13:17:31.093Z,53.62
2017-12-29T13:19:58.513Z,54.76
2017-12-29T13:22:26.018Z,54.03
2017-12-29T13:24:53.463Z,55.72
2017-12-29T13:27:20.951Z,56.52
2017-12-29T13:29:48.416Z,56.34
2017-12-29T13:32:15.926Z,56.61
2017-12-29T13:34:43.473Z,57.18
2017-12-29T13:37:10.941Z,56.77
2017-12-29T13:39:38.397Z,57.23
2017-12-29T13:42:05.853Z,58.46
2017-12-29T13:44:33.397Z,58.12
2017-12-29T13:47:00.929Z,57.89
2017-12-29T13:49:28.494Z,57.47
2017-12-29T13:51:55.975Z,58.01
2017-12-29T13:54:23.456Z,58.75
2017-12-29T13:56:50.904Z,59.62
2017-12-29T13:59:18.364Z,61.35
2017-12-29T14:01:45.832Z,62.48
2017-12-29T14:04:13.276Z,62.30
2017-12-29T14:06:40.798Z,61.87
2017-12-29T14:09:08.286Z,60.57
2017-12-29T14:11:35.767Z,61.36
2017-12-29T14:14:03.214Z,60.75
2017-12-29T14:16:31.084Z,61.06
2017-12-29T14:18:58.558Z,61.79
2017-12-29T14:21:25.995Z,61.79
2017-12-29T14:23:53.472Z,61.53
2017-12-29T14:26:21.013Z,61.93
2017-12-29T14:28:48.462Z,62.52
2017-12-29T14:31:15.902Z,62.95
2017-12-29T14:33:43.397Z,63.75
2017-12-29T14:36:10.892Z,64.42
2017-12-29T14:38:38.420Z,64.03
2017-12-29T14:41:05.926Z,64.04
2017-12-29T14:43:33.370Z,63.54
2017-12-29T14:46:00.823Z,63.68
2017-12-29T14:48:28.270Z,62.68
2017-12-29T14:50:55.734Z,63.02
2017-12-29T14:53:23.241Z,63.85
2017-12-29T14:55:50.708Z,63.52
2017-12-29T14:58:18.189Z,63.83
2017-12-29T15:00:45.636Z,64.58
2017-12-29T15:03:13.079Z,64.98
2017-12-29T15:05:40.590Z,65.01
2017-12-29T15:08:08.067Z,65.16
2017-12-29T15:10:35.529Z,65.54
2017-12-29T15:13:03.042Z,65.79
2017-12-29T15:15:30.473Z,66.43
2017-12-29T15:17:57.925Z,65.89
2017-12-29T15:20:25.375Z,65.71
2017-12-29T15:22:52.930Z,66.53
2017-12-29T15:25:20.413Z,67.04
2017-12-29T15:27:47.931Z,66.53
2017-12-29T15:30:15.384Z,66.74
2017-12-29T15:32:42.881Z,67.49
2017-12-29T15:35:10.398Z,67.21
2017-12-29T15:37:37.849Z,67.07
2017-12-29T15:40:05.407Z,67.26
2017-12-29T15:42:32.852Z,67.54
2017-12-29T15:45:00.375Z,67.34
2017-12-29T15:47:27.835Z,67.30
2017-12-29T15:49:55.412Z,67.77
2017-12-29T15:52:22.947Z,67.87
2017-12-29T15:54:50.473Z,68.19
2017-12-29T15:57:17.919Z,68.33
2017-12-29T15:59:45.384Z,68.62
2017-12-29T16:02:16.403Z,68.70
2017-12-29T16:04:44.315Z,68.77
2017-12-29T16:07:11.886Z,68.99
2017-12-29T16:09:39.341Z,69.02
2017-12-29T16:12:06.834Z,69.33
2017-12-29T16:14:34.281Z,69.32
2017-12-29T16:17:01.755Z,69.68
2017-12-29T16:19:29.272Z,68.75
2017-12-29T16:21:56.722Z,69.08
2017-12-29T16:24:24.215Z,69.51
2017-12-29T16:26:51.737Z,69.39
2017-12-29T16:29:19.233Z,70.52
2017-12-29T16:31:46.776Z,70.21
2017-12-29T16:34:14.261Z,70.27
2017-12-29T16:36:41.735Z,70.49
2017-12-29T16:39:09.197Z,70.12
2017-12-29T16:41:36.649Z,70.27
2017-12-29T16:44:04.166Z,70.95
2017-12-29T16:46:31.696Z,69.91
2017-12-29T16:48:59.213Z,70.33
2017-12-29T16:51:26.745Z,70.36
2017-12-29T16:53:54.185Z,70.57
2017-12-29T16:56:21.689Z,70.69
2017-12-29T16:58:49.178Z,71.06
2017-12-29T17:01:16.775Z,71.12
2017-12-29T17:03:44.267Z,71.51
2017-12-29T17:06:11.805Z,71.14
2017-12-29T17:08:39.303Z,70.81
2017-12-29T17:11:06.757Z,70.68
2017-12-29T17:13:34.213Z,70.50
2017-12-29T17:16:01.697Z,70.86
2017-12-29T17:18:29.195Z,71.22
2017-12-29T17:20:56.680Z,71.81
2017-12-29T17:23:24.178Z,71.77
2017-12-29T17:25:51.790Z,71.96
2017-12-29T17:28:19.286Z,71.70
2017-12-29T17:30:46.769Z,72.02
2017-12-29T17:33:14.301Z,72.40
2017-12-29T17:35:41.789Z,72.22
2017-12-29T17:38:09.303Z,72.25
2017-12-29T17:40:36.806Z,72.04
2017-12-29T17:43:04.299Z,72.11
2017-12-29T17:45:31.757Z,72.00
2017-12-29T17:47:59.265Z,72.04
2017-12-29T17:50:26.761Z,71.85
2017-12-29T17:52:54.269Z,71.78
2017-12-29T17:55:21.787Z,71.35
2017-12-29T17:57:49.243Z,70.31
2017-12-29T18:00:16.747Z,69.99
2017-12-29T18:02:44.347Z,70.37
2017-12-29T18:05:11.838Z,70.45
2017-12-29T18:07:39.319Z,70.62
2017-12-29T18:10:06.882Z,70.83
2017-12-29T18:12:34.345Z,71.09
2017-12-29T18:15:01.793Z,71.35
2017-12-29T18:17:29.316Z,71.51
2017-12-29T18:19:56.792Z,71.57
2017-12-29T18:22:24.288Z,71.62
2017-12-29T18:24:51.773Z,71.78
2017-12-29T18:27:19.235Z,72.02
2017-12-29T18:29:46.680Z,72.26
2017-12-29T18:32:14.206Z,72.63
2017-12-29T18:34:41.644Z,72.75
2017-12-29T18:37:09.091Z,73.04
2017-12-29T18:39:36.545Z,73.16
2017-12-29T18:42:04.097Z,73.41
2017-12-29T18:44:31.664Z,73.60
2017-12-29T18:46:59.149Z,73.87
2017-12-29T18:49:26.854Z,73.94
2017-12-29T18:51:54.378Z,73.71
2017-12-29T18:54:21.952Z,73.86
2017-12-29T18:56:49.451Z,73.68
2017-12-29T18:59:16.901Z,73.55
2017-12-29T19:01:44.401Z,73.57
2017-12-29T19:04:11.887Z,73.52
2017-12-29T19:06:39.389Z,73.57
2017-12-29T19:09:06.957Z,73.58
2017-12-29T19:11:34.471Z,73.70
2017-12-29T19:14:02.025Z,74.00
2017-12-29T19:16:29.541Z,73.77
2017-12-29T19:18:57.072Z,73.46
2017-12-29T19:21:24.629Z,73.15
2017-12-29T19:23:52.222Z,73.21
2017-12-29T19:26:19.792Z,73.03
2017-12-29T19:28:47.295Z,73.03
2017-12-29T19:31:14.795Z,72.69
2017-12-29T19:33:42.401Z,72.86
2017-12-29T19:36:09.907Z,72.52
2017-12-29T19:38:37.432Z,72.42
2017-12-29T19:41:04.922Z,72.52
2017-12-29T19:43:32.472Z,71.99
2017-12-29T19:45:59.968Z,72.20
2017-12-29T19:48:27.462Z,71.54
2017-12-29T19:50:54.976Z,71.59
2017-12-29T19:53:22.467Z,71.69
2017-12-29T19:55:50.056Z,71.66
2017-12-29T19:58:17.546Z,71.47
2017-12-29T20:00:45.056Z,71.76
2017-12-29T20:03:12.556Z,71.78
2017-12-29T20:05:40.085Z,71.87
2017-12-29T20:08:07.582Z,71.89
2017-12-29T20:10:35.091Z,71.95
2017-12-29T20:13:02.752Z,72.17
2017-12-29T20:15:30.407Z,72.21
2017-12-29T20:17:57.893Z,72.49
2017-12-29T20:20:25.385Z,72.61
2017-12-29T20:22:52.973Z,72.65
2017-12-29T20:25:20.448Z,72.63
2017-12-29T20:27:47.964Z,72.90
2017-12-29T20:30:15.581Z,73.25
2017-12-29T20:32:43.128Z,73.16
2017-12-29T20:35:10.640Z,73.35
2017-12-29T20:37:38.182Z,73.46
2017-12-29T20:40:05.694Z,73.72
2017-12-29T20:42:33.209Z,73.91
2017-12-29T20:45:00.724Z,73.80
2017-12-29T20:47:28.269Z,74.17
2017-12-29T20:49:55.834Z,74.09
2017-12-29T20:52:23.345Z,74.36
2017-12-29T20:54:50.867Z,74.42
2017-12-29T20:57:18.465Z,74.43
2017-12-29T20:59:46.004Z,74.38
2017-12-29T21:02:13.515Z,74.49
2017-12-29T21:04:41.077Z,74.68
2017-12-29T21:07:08.954Z,74.61
2017-12-29T21:09:36.528Z,74.81
2017-12-29T21:12:04.092Z,74.88
2017-12-29T21:14:31.594Z,74.86
2017-12-29T21:16:59.105Z,74.80
2017-12-29T21:19:26.598Z,74.84
2017-12-29T21:21:54.114Z,75.28
2017-12-29T21:24:21.657Z,75.34
2017-12-29T21:26:49.156Z,75.36
2017-12-29T21:29:16.658Z,75.01
2017-12-29T21:31:44.168Z,75.10
2017-12-29T21:34:11.771Z,75.17
2017-12-29T21:36:39.316Z,75.06
2017-12-29T21:39:06.833Z,75.25
2017-12-29T21:41:34.369Z,75.07
2017-12-29T21:44:01.937Z,75.18
2017-12-29T21:46:29.439Z,75.02
2017-12-29T21:48:57.149Z,74.81
2017-12-29T21:51:24.743Z,74.39
2017-12-29T21:53:52.315Z,74.31
2017-12-29T21:56:19.813Z,74.19
2017-12-29T21:58:47.355Z,73.94
2017-12-29T22:01:14.935Z,74.22
2017-12-29T22:03:42.450Z,74.07
2017-12-29T22:06:09.956Z,74.41
2017-12-29T22:08:37.454Z,74.19
2017-12-29T22:11:05.033Z,74.17
2017-12-29T22:13:32.814Z,74.08
2017-12-29T22:16:00.344Z,73.70
2017-12-29T22:18:27.843Z,74.11
2017-12-29T22:20:55.423Z,73.91
2017-12-29T22:23:22.989Z,74.43
2017-12-29T22:25:50.558Z,74.35
2017-12-29T22:28:18.140Z,73.84
2017-12-29T22:30:45.638Z,73.89
2017-12-29T22:33:13.140Z,74.04
2017-12-29T22:35:40.636Z,74.25
2017-12-29T22:38:08.221Z,73.98
2017-12-29T22:40:35.740Z,73.84
2017-12-29T22:43:03.371Z,73.66
2017-12-29T22:45:30.882Z,73.45
2017-12-29T22:47:58.413Z,73.05
2017-12-29T22:50:25.920Z,73.34
2017-12-29T22:52:53.518Z,73.12
2017-12-29T22:55:21.057Z,72.90
2017-12-29T22:57:48.600Z,72.82
2017-12-29T23:00:17.065Z,72.54
2017-12-29T23:02:44.561Z,72.21
2017-12-29T23:05:12.136Z,72.11
2017-12-29T23:07:39.697Z,72.14
2017-12-29T23:10:07.281Z,71.51
2017-12-29T23:12:34.892Z,71.28
2017-12-29T23:15:02.432Z,70.96
2017-12-29T23:17:29.997Z,70.38
2017-12-29T23:19:57.493Z,70.57
2017-12-29T23:22:26.436Z,70.50
2017-12-29T23:24:53.940Z,70.71
2017-12-29T23:27:21.441Z,70.78
2017-12-29T23:29:48.972Z,70.97
2017-12-29T23:32:16.500Z,70.97
2017-12-29T23:34:44.034Z,70.38
2017-12-29T23:37:11.598Z,70.42
2017-12-29T23:39:39.106Z,70.52
2017-12-29T23:42:06.612Z,70.94
2017-12-29T23:44:34.105Z,71.43
2017-12-29T23:47:01.685Z,70.81
2017-12-29T23:49:29.272Z,71.01
2017-12-29T23:51:56.759Z,70.98
2017-12-29T23:54:24.302Z,70.58
2017-12-29T23:56:51.800Z,70.09
2017-12-29T23:59:19.369Z,69.81
